sensor_id;sensor_type;location;lat;lon;timestamp;P1;durP1;ratioP1;P2;durP2;ratioP2
7957;SDS011;4024;52.172;5.378;2022-08-19T00:01:52;7.93;;;7.20;;
7957;SDS011;4024;52.172;5.378;2022-08-19T00:04:21;8.10;;;7.30;;
7957;SDS011;4024;52.172;5.378;2022-08-19T00:06:59;8.63;;;7.87;;
7957;SDS011;4024;52.172;5.378;2022-08-19T00:09:26;7.87;;;7.17;;
7957;SDS011;4024;52.172;5.378;2022-08-19T00:11:53;8.10;;;7.40;;
7957;SDS011;4024;52.172;5.378;2022-08-19T00:14:20;7.80;;;7.07;;
7957;SDS011;4024;52.172;5.378;2022-08-19T00:16:50;9.70;;;8.80;;
7957;SDS011;4024;52.172;5.378;2022-08-19T00:19:29;7.93;;;7.13;;
7957;SDS011;4024;52.172;5.378;2022-08-19T00:21:56;10.20;;;8.17;;
7957;SDS011;4024;52.172;5.378;2022-08-19T00:24:22;8.53;;;7.67;;
7957;SDS011;4024;52.172;5.378;2022-08-19T00:26:51;8.63;;;7.37;;
7957;SDS011;4024;52.172;5.378;2022-08-19T00:29:21;9.40;;;7.80;;
7957;SDS011;4024;52.172;5.378;2022-08-19T00:31:48;8.70;;;7.90;;
7957;SDS011;4024;52.172;5.378;2022-08-19T00:34:19;9.57;;;8.67;;
7957;SDS011;4024;52.172;5.378;2022-08-19T00:36:47;8.53;;;7.70;;
7957;SDS011;4024;52.172;5.378;2022-08-19T00:39:14;8.33;;;7.53;;
7957;SDS011;4024;52.172;5.378;2022-08-19T00:41:42;9.00;;;8.10;;
7957;SDS011;4024;52.172;5.378;2022-08-19T00:44:15;8.70;;;7.90;;
7957;SDS011;4024;52.172;5.378;2022-08-19T00:46:45;9.27;;;8.17;;
7957;SDS011;4024;52.172;5.378;2022-08-19T00:49:19;8.47;;;6.77;;
7957;SDS011;4024;52.172;5.378;2022-08-19T00:51:53;8.20;;;7.50;;
7957;SDS011;4024;52.172;5.378;2022-08-19T00:54:23;7.63;;;6.93;;
7957;SDS011;4024;52.172;5.378;2022-08-19T00:56:49;8.17;;;7.33;;
7957;SDS011;4024;52.172;5.378;2022-08-19T00:59:15;8.10;;;7.30;;
7957;SDS011;4024;52.172;5.378;2022-08-19T01:01:43;7.57;;;6.87;;
7957;SDS011;4024;52.172;5.378;2022-08-19T01:04:10;7.87;;;6.77;;
7957;SDS011;4024;52.172;5.378;2022-08-19T01:06:37;8.73;;;7.80;;
7957;SDS011;4024;52.172;5.378;2022-08-19T01:09:05;8.83;;;7.90;;
7957;SDS011;4024;52.172;5.378;2022-08-19T01:11:33;8.27;;;7.47;;
7957;SDS011;4024;52.172;5.378;2022-08-19T01:14:01;8.93;;;7.20;;
7957;SDS011;4024;52.172;5.378;2022-08-19T01:16:28;8.03;;;7.23;;
7957;SDS011;4024;52.172;5.378;2022-08-19T01:18:54;8.30;;;7.27;;
7957;SDS011;4024;52.172;5.378;2022-08-19T01:21:28;8.73;;;7.87;;
7957;SDS011;4024;52.172;5.378;2022-08-19T01:23:59;7.93;;;7.10;;
7957;SDS011;4024;52.172;5.378;2022-08-19T01:26:25;10.73;;;8.10;;
7957;SDS011;4024;52.172;5.378;2022-08-19T01:28:53;9.20;;;8.40;;
7957;SDS011;4024;52.172;5.378;2022-08-19T01:31:24;8.80;;;8.00;;
7957;SDS011;4024;52.172;5.378;2022-08-19T01:33:52;9.80;;;8.57;;
7957;SDS011;4024;52.172;5.378;2022-08-19T01:36:27;9.00;;;8.13;;
7957;SDS011;4024;52.172;5.378;2022-08-19T01:38:55;9.67;;;8.77;;
7957;SDS011;4024;52.172;5.378;2022-08-19T01:41:23;9.50;;;8.43;;
7957;SDS011;4024;52.172;5.378;2022-08-19T01:43:49;9.67;;;8.67;;
7957;SDS011;4024;52.172;5.378;2022-08-19T01:46:16;10.67;;;9.67;;
7957;SDS011;4024;52.172;5.378;2022-08-19T01:48:43;8.97;;;8.10;;
7957;SDS011;4024;52.172;5.378;2022-08-19T01:51:10;9.83;;;8.83;;
7957;SDS011;4024;52.172;5.378;2022-08-19T01:53:37;10.43;;;9.37;;
7957;SDS011;4024;52.172;5.378;2022-08-19T01:56:04;10.53;;;9.20;;
7957;SDS011;4024;52.172;5.378;2022-08-19T01:58:38;10.80;;;9.80;;
7957;SDS011;4024;52.172;5.378;2022-08-19T02:01:11;10.57;;;9.53;;
7957;SDS011;4024;52.172;5.378;2022-08-19T02:03:37;11.63;;;10.00;;
7957;SDS011;4024;52.172;5.378;2022-08-19T02:06:03;11.07;;;9.80;;
7957;SDS011;4024;52.172;5.378;2022-08-19T02:08:35;11.10;;;10.00;;
7957;SDS011;4024;52.172;5.378;2022-08-19T02:11:04;11.07;;;9.97;;
7957;SDS011;4024;52.172;5.378;2022-08-19T02:13:30;9.83;;;8.83;;
7957;SDS011;4024;52.172;5.378;2022-08-19T02:15:56;10.67;;;9.57;;
7957;SDS011;4024;52.172;5.378;2022-08-19T02:18:23;10.60;;;9.60;;
7957;SDS011;4024;52.172;5.378;2022-08-19T02:20:48;9.83;;;8.93;;
7957;SDS011;4024;52.172;5.378;2022-08-19T02:23:15;11.90;;;9.40;;
7957;SDS011;4024;52.172;5.378;2022-08-19T02:25:45;9.77;;;8.87;;
7957;SDS011;4024;52.172;5.378;2022-08-19T02:28:12;9.30;;;8.50;;
7957;SDS011;4024;52.172;5.378;2022-08-19T02:30:38;10.13;;;9.13;;
7957;SDS011;4024;52.172;5.378;2022-08-19T02:33:08;10.13;;;9.13;;
7957;SDS011;4024;52.172;5.378;2022-08-19T02:35:34;9.97;;;8.97;;
7957;SDS011;4024;52.172;5.378;2022-08-19T02:38:00;10.07;;;8.80;;
7957;SDS011;4024;52.172;5.378;2022-08-19T02:40:48;8.33;;;7.53;;
7957;SDS011;4024;52.172;5.378;2022-08-19T02:43:17;8.97;;;7.60;;
7957;SDS011;4024;52.172;5.378;2022-08-19T02:45:45;7.93;;;7.23;;
7957;SDS011;4024;52.172;5.378;2022-08-19T02:48:17;7.50;;;6.80;;
7957;SDS011;4024;52.172;5.378;2022-08-19T02:50:45;7.40;;;6.80;;
7957;SDS011;4024;52.172;5.378;2022-08-19T02:53:12;8.33;;;7.30;;
7957;SDS011;4024;52.172;5.378;2022-08-19T02:55:47;8.57;;;7.40;;
7957;SDS011;4024;52.172;5.378;2022-08-19T02:58:16;7.90;;;7.20;;
7957;SDS011;4024;52.172;5.378;2022-08-19T03:00:43;8.47;;;7.67;;
7957;SDS011;4024;52.172;5.378;2022-08-19T03:03:17;8.37;;;7.37;;
7957;SDS011;4024;52.172;5.378;2022-08-19T03:05:44;9.97;;;8.97;;
7957;SDS011;4024;52.172;5.378;2022-08-19T03:08:10;9.80;;;8.50;;
7957;SDS011;4024;52.172;5.378;2022-08-19T03:10:44;9.03;;;8.10;;
7957;SDS011;4024;52.172;5.378;2022-08-19T03:13:15;9.97;;;9.07;;
7957;SDS011;4024;52.172;5.378;2022-08-19T03:15:44;9.67;;;8.77;;
7957;SDS011;4024;52.172;5.378;2022-08-19T03:18:11;10.27;;;8.60;;
7957;SDS011;4024;52.172;5.378;2022-08-19T03:20:49;10.17;;;8.53;;
7957;SDS011;4024;52.172;5.378;2022-08-19T03:23:17;9.47;;;8.50;;
7957;SDS011;4024;52.172;5.378;2022-08-19T03:25:45;10.57;;;9.47;;
7957;SDS011;4024;52.172;5.378;2022-08-19T03:28:13;10.67;;;9.57;;
7957;SDS011;4024;52.172;5.378;2022-08-19T03:30:40;10.47;;;9.20;;
7957;SDS011;4024;52.172;5.378;2022-08-19T03:33:08;10.60;;;9.50;;
7957;SDS011;4024;52.172;5.378;2022-08-19T03:35:37;9.73;;;8.83;;
7957;SDS011;4024;52.172;5.378;2022-08-19T03:38:05;11.40;;;10.30;;
7957;SDS011;4024;52.172;5.378;2022-08-19T03:40:32;12.17;;;10.90;;
7957;SDS011;4024;52.172;5.378;2022-08-19T03:43:01;11.23;;;10.03;;
7957;SDS011;4024;52.172;5.378;2022-08-19T03:45:27;11.47;;;10.27;;
7957;SDS011;4024;52.172;5.378;2022-08-19T03:47:53;10.37;;;9.27;;
7957;SDS011;4024;52.172;5.378;2022-08-19T03:50:19;10.27;;;9.17;;
7957;SDS011;4024;52.172;5.378;2022-08-19T03:52:49;11.33;;;10.20;;
7957;SDS011;4024;52.172;5.378;2022-08-19T03:55:16;12.37;;;9.97;;
7957;SDS011;4024;52.172;5.378;2022-08-19T03:57:42;10.53;;;9.43;;
7957;SDS011;4024;52.172;5.378;2022-08-19T04:00:08;12.57;;;11.27;;
7957;SDS011;4024;52.172;5.378;2022-08-19T04:02:35;14.47;;;12.80;;
7957;SDS011;4024;52.172;5.378;2022-08-19T04:05:00;11.77;;;10.67;;
7957;SDS011;4024;52.172;5.378;2022-08-19T04:07:26;13.30;;;11.90;;
7957;SDS011;4024;52.172;5.378;2022-08-19T04:09:52;14.87;;;13.23;;
7957;SDS011;4024;52.172;5.378;2022-08-19T04:12:18;15.47;;;13.43;;
7957;SDS011;4024;52.172;5.378;2022-08-19T04:14:45;14.60;;;13.20;;
7957;SDS011;4024;52.172;5.378;2022-08-19T04:17:11;14.57;;;13.07;;
7957;SDS011;4024;52.172;5.378;2022-08-19T04:19:38;13.50;;;12.13;;
7957;SDS011;4024;52.172;5.378;2022-08-19T04:22:05;14.63;;;13.10;;
7957;SDS011;4024;52.172;5.378;2022-08-19T04:24:32;16.90;;;14.10;;
7957;SDS011;4024;52.172;5.378;2022-08-19T04:27:00;16.47;;;12.43;;
7957;SDS011;4024;52.172;5.378;2022-08-19T04:29:26;15.13;;;13.47;;
7957;SDS011;4024;52.172;5.378;2022-08-19T04:31:53;14.87;;;13.27;;
7957;SDS011;4024;52.172;5.378;2022-08-19T04:34:20;13.70;;;12.27;;
7957;SDS011;4024;52.172;5.378;2022-08-19T04:36:52;14.87;;;13.37;;
7957;SDS011;4024;52.172;5.378;2022-08-19T04:39:20;15.17;;;12.90;;
7957;SDS011;4024;52.172;5.378;2022-08-19T04:41:48;15.43;;;13.37;;
7957;SDS011;4024;52.172;5.378;2022-08-19T04:44:34;13.67;;;12.37;;
7957;SDS011;4024;52.172;5.378;2022-08-19T04:47:00;15.67;;;13.57;;
7957;SDS011;4024;52.172;5.378;2022-08-19T04:49:30;15.23;;;13.47;;
7957;SDS011;4024;52.172;5.378;2022-08-19T04:51:56;15.27;;;13.67;;
7957;SDS011;4024;52.172;5.378;2022-08-19T04:54:23;16.00;;;14.00;;
7957;SDS011;4024;52.172;5.378;2022-08-19T04:56:50;15.63;;;13.93;;
7957;SDS011;4024;52.172;5.378;2022-08-19T04:59:18;17.33;;;14.47;;
7957;SDS011;4024;52.172;5.378;2022-08-19T05:01:45;18.13;;;14.37;;
7957;SDS011;4024;52.172;5.378;2022-08-19T05:04:15;17.57;;;14.77;;
7957;SDS011;4024;52.172;5.378;2022-08-19T05:06:43;17.67;;;15.00;;
7957;SDS011;4024;52.172;5.378;2022-08-19T05:09:13;16.80;;;14.73;;
7957;SDS011;4024;52.172;5.378;2022-08-19T05:11:39;16.00;;;14.13;;
7957;SDS011;4024;52.172;5.378;2022-08-19T05:14:06;15.90;;;14.20;;
7957;SDS011;4024;52.172;5.378;2022-08-19T05:16:33;16.73;;;14.60;;
7957;SDS011;4024;52.172;5.378;2022-08-19T05:18:59;16.10;;;14.23;;
7957;SDS011;4024;52.172;5.378;2022-08-19T05:21:44;13.70;;;12.30;;
7957;SDS011;4024;52.172;5.378;2022-08-19T05:24:29;18.07;;;14.47;;
7957;SDS011;4024;52.172;5.378;2022-08-19T05:26:55;17.40;;;14.50;;
7957;SDS011;4024;52.172;5.378;2022-08-19T05:29:22;15.77;;;14.00;;
7957;SDS011;4024;52.172;5.378;2022-08-19T05:31:51;18.67;;;14.77;;
7957;SDS011;4024;52.172;5.378;2022-08-19T05:34:19;16.80;;;14.87;;
7957;SDS011;4024;52.172;5.378;2022-08-19T05:36:47;18.97;;;15.97;;
7957;SDS011;4024;52.172;5.378;2022-08-19T05:39:25;26.20;;;20.50;;
7957;SDS011;4024;52.172;5.378;2022-08-19T05:41:54;33.40;;;24.73;;
7957;SDS011;4024;52.172;5.378;2022-08-19T05:44:26;33.93;;;25.17;;
7957;SDS011;4024;52.172;5.378;2022-08-19T05:46:56;33.67;;;24.43;;
7957;SDS011;4024;52.172;5.378;2022-08-19T05:49:23;32.77;;;25.37;;
7957;SDS011;4024;52.172;5.378;2022-08-19T05:51:53;33.43;;;27.13;;
7957;SDS011;4024;52.172;5.378;2022-08-19T05:54:20;43.10;;;29.93;;
7957;SDS011;4024;52.172;5.378;2022-08-19T05:56:48;44.27;;;31.43;;
7957;SDS011;4024;52.172;5.378;2022-08-19T05:59:15;45.70;;;32.03;;
7957;SDS011;4024;52.172;5.378;2022-08-19T06:01:43;50.03;;;32.73;;
7957;SDS011;4024;52.172;5.378;2022-08-19T06:04:10;59.87;;;35.90;;
7957;SDS011;4024;52.172;5.378;2022-08-19T06:06:38;55.37;;;35.30;;
7957;SDS011;4024;52.172;5.378;2022-08-19T06:09:05;56.27;;;36.07;;
7957;SDS011;4024;52.172;5.378;2022-08-19T06:14:10;55.30;;;35.53;;
7957;SDS011;4024;52.172;5.378;2022-08-19T06:16:40;50.97;;;35.87;;
7957;SDS011;4024;52.172;5.378;2022-08-19T06:19:08;50.70;;;35.60;;
7957;SDS011;4024;52.172;5.378;2022-08-19T06:21:41;50.47;;;33.10;;
7957;SDS011;4024;52.172;5.378;2022-08-19T06:24:10;55.20;;;35.70;;
7957;SDS011;4024;52.172;5.378;2022-08-19T06:26:38;46.40;;;33.30;;
7957;SDS011;4024;52.172;5.378;2022-08-19T06:29:06;48.93;;;33.90;;
7957;SDS011;4024;52.172;5.378;2022-08-19T06:31:34;50.27;;;35.40;;
7957;SDS011;4024;52.172;5.378;2022-08-19T06:34:04;48.97;;;34.97;;
7957;SDS011;4024;52.172;5.378;2022-08-19T06:36:32;50.60;;;35.23;;
7957;SDS011;4024;52.172;5.378;2022-08-19T06:39:03;56.40;;;36.23;;
7957;SDS011;4024;52.172;5.378;2022-08-19T06:41:33;51.57;;;34.77;;
7957;SDS011;4024;52.172;5.378;2022-08-19T06:44:01;49.93;;;34.27;;
7957;SDS011;4024;52.172;5.378;2022-08-19T06:46:27;48.03;;;32.53;;
7957;SDS011;4024;52.172;5.378;2022-08-19T06:48:53;48.60;;;34.70;;
7957;SDS011;4024;52.172;5.378;2022-08-19T06:51:33;46.13;;;31.53;;
7957;SDS011;4024;52.172;5.378;2022-08-19T06:53:59;49.93;;;32.53;;
7957;SDS011;4024;52.172;5.378;2022-08-19T06:56:27;51.37;;;33.10;;
7957;SDS011;4024;52.172;5.378;2022-08-19T06:59:04;53.43;;;36.53;;
7957;SDS011;4024;52.172;5.378;2022-08-19T07:01:36;52.73;;;35.33;;
7957;SDS011;4024;52.172;5.378;2022-08-19T07:04:03;57.57;;;35.73;;
7957;SDS011;4024;52.172;5.378;2022-08-19T07:06:30;53.90;;;34.40;;
7957;SDS011;4024;52.172;5.378;2022-08-19T07:08:56;54.43;;;36.03;;
7957;SDS011;4024;52.172;5.378;2022-08-19T07:11:23;54.97;;;35.63;;
7957;SDS011;4024;52.172;5.378;2022-08-19T07:13:50;55.83;;;36.23;;
7957;SDS011;4024;52.172;5.378;2022-08-19T07:16:17;57.77;;;37.90;;
7957;SDS011;4024;52.172;5.378;2022-08-19T07:18:47;56.23;;;36.43;;
7957;SDS011;4024;52.172;5.378;2022-08-19T07:21:15;56.03;;;37.70;;
7957;SDS011;4024;52.172;5.378;2022-08-19T07:23:43;54.40;;;35.93;;
7957;SDS011;4024;52.172;5.378;2022-08-19T07:26:14;57.60;;;37.83;;
7957;SDS011;4024;52.172;5.378;2022-08-19T07:28:44;52.20;;;36.37;;
7957;SDS011;4024;52.172;5.378;2022-08-19T07:31:11;49.70;;;35.27;;
7957;SDS011;4024;52.172;5.378;2022-08-19T07:33:40;55.93;;;36.00;;
7957;SDS011;4024;52.172;5.378;2022-08-19T07:36:08;53.60;;;36.13;;
7957;SDS011;4024;52.172;5.378;2022-08-19T07:38:39;55.80;;;35.37;;
7957;SDS011;4024;52.172;5.378;2022-08-19T07:41:07;53.50;;;37.07;;
7957;SDS011;4024;52.172;5.378;2022-08-19T07:43:34;47.77;;;33.37;;
7957;SDS011;4024;52.172;5.378;2022-08-19T07:46:00;48.13;;;33.47;;
7957;SDS011;4024;52.172;5.378;2022-08-19T07:48:27;44.80;;;31.40;;
7957;SDS011;4024;52.172;5.378;2022-08-19T07:50:58;48.73;;;33.53;;
7957;SDS011;4024;52.172;5.378;2022-08-19T07:53:26;47.53;;;33.10;;
7957;SDS011;4024;52.172;5.378;2022-08-19T07:55:53;47.20;;;33.30;;
7957;SDS011;4024;52.172;5.378;2022-08-19T07:58:19;46.40;;;32.70;;
7957;SDS011;4024;52.172;5.378;2022-08-19T08:00:47;47.43;;;33.17;;
7957;SDS011;4024;52.172;5.378;2022-08-19T08:03:15;40.77;;;29.80;;
7957;SDS011;4024;52.172;5.378;2022-08-19T08:05:43;43.73;;;32.60;;
7957;SDS011;4024;52.172;5.378;2022-08-19T08:08:38;41.83;;;30.30;;
7957;SDS011;4024;52.172;5.378;2022-08-19T08:11:23;40.00;;;29.70;;
7957;SDS011;4024;52.172;5.378;2022-08-19T08:13:48;43.93;;;30.57;;
7957;SDS011;4024;52.172;5.378;2022-08-19T08:16:14;42.37;;;30.07;;
7957;SDS011;4024;52.172;5.378;2022-08-19T08:18:40;42.40;;;29.53;;
7957;SDS011;4024;52.172;5.378;2022-08-19T08:21:08;40.37;;;27.67;;
7957;SDS011;4024;52.172;5.378;2022-08-19T08:23:34;40.53;;;29.77;;
7957;SDS011;4024;52.172;5.378;2022-08-19T08:26:00;37.83;;;27.70;;
7957;SDS011;4024;52.172;5.378;2022-08-19T08:28:27;39.37;;;28.57;;
7957;SDS011;4024;52.172;5.378;2022-08-19T08:30:53;34.87;;;25.90;;
7957;SDS011;4024;52.172;5.378;2022-08-19T08:33:20;42.13;;;28.50;;
7957;SDS011;4024;52.172;5.378;2022-08-19T08:35:47;37.60;;;27.30;;
7957;SDS011;4024;52.172;5.378;2022-08-19T08:38:13;40.30;;;29.10;;
7957;SDS011;4024;52.172;5.378;2022-08-19T08:43:22;37.77;;;27.53;;
7957;SDS011;4024;52.172;5.378;2022-08-19T08:46:09;36.37;;;27.63;;
7957;SDS011;4024;52.172;5.378;2022-08-19T08:48:49;41.10;;;28.13;;
7957;SDS011;4024;52.172;5.378;2022-08-19T08:51:28;40.63;;;27.80;;
7957;SDS011;4024;52.172;5.378;2022-08-19T08:54:08;34.20;;;25.60;;
7957;SDS011;4024;52.172;5.378;2022-08-19T08:56:40;32.50;;;25.30;;
7957;SDS011;4024;52.172;5.378;2022-08-19T08:59:10;32.97;;;25.80;;
7957;SDS011;4024;52.172;5.378;2022-08-19T09:01:49;32.33;;;25.43;;
7957;SDS011;4024;52.172;5.378;2022-08-19T09:04:15;34.77;;;25.37;;
7957;SDS011;4024;52.172;5.378;2022-08-19T09:09:39;33.93;;;24.93;;
7957;SDS011;4024;52.172;5.378;2022-08-19T09:12:14;32.70;;;24.73;;
7957;SDS011;4024;52.172;5.378;2022-08-19T09:17:24;32.93;;;24.93;;
7957;SDS011;4024;52.172;5.378;2022-08-19T09:22:42;30.80;;;24.30;;
7957;SDS011;4024;52.172;5.378;2022-08-19T09:25:19;36.53;;;25.33;;
7957;SDS011;4024;52.172;5.378;2022-08-19T09:27:50;32.23;;;24.47;;
7957;SDS011;4024;52.172;5.378;2022-08-19T09:30:25;30.03;;;22.80;;
7957;SDS011;4024;52.172;5.378;2022-08-19T09:32:52;32.30;;;24.13;;
7957;SDS011;4024;52.172;5.378;2022-08-19T09:35:19;30.57;;;25.17;;
7957;SDS011;4024;52.172;5.378;2022-08-19T09:37:47;31.43;;;26.27;;
7957;SDS011;4024;52.172;5.378;2022-08-19T09:40:14;34.03;;;26.87;;
7957;SDS011;4024;52.172;5.378;2022-08-19T09:42:40;30.67;;;24.17;;
7957;SDS011;4024;52.172;5.378;2022-08-19T09:45:08;28.33;;;24.00;;
7957;SDS011;4024;52.172;5.378;2022-08-19T09:47:35;27.10;;;23.40;;
7957;SDS011;4024;52.172;5.378;2022-08-19T09:50:03;25.27;;;21.87;;
7957;SDS011;4024;52.172;5.378;2022-08-19T09:52:31;28.00;;;22.90;;
7957;SDS011;4024;52.172;5.378;2022-08-19T09:54:56;25.70;;;23.00;;
7957;SDS011;4024;52.172;5.378;2022-08-19T09:57:22;26.83;;;22.77;;
7957;SDS011;4024;52.172;5.378;2022-08-19T09:59:48;23.77;;;21.17;;
7957;SDS011;4024;52.172;5.378;2022-08-19T10:02:13;26.40;;;21.27;;
7957;SDS011;4024;52.172;5.378;2022-08-19T10:04:39;26.10;;;19.57;;
7957;SDS011;4024;52.172;5.378;2022-08-19T10:07:23;22.17;;;18.70;;
7957;SDS011;4024;52.172;5.378;2022-08-19T10:09:49;19.07;;;16.10;;
7957;SDS011;4024;52.172;5.378;2022-08-19T10:12:15;20.57;;;16.67;;
7957;SDS011;4024;52.172;5.378;2022-08-19T10:14:41;21.20;;;16.97;;
7957;SDS011;4024;52.172;5.378;2022-08-19T10:17:07;23.13;;;17.80;;
7957;SDS011;4024;52.172;5.378;2022-08-19T10:19:32;18.90;;;16.17;;
7957;SDS011;4024;52.172;5.378;2022-08-19T10:22:04;22.43;;;18.23;;
7957;SDS011;4024;52.172;5.378;2022-08-19T10:24:32;20.23;;;16.17;;
7957;SDS011;4024;52.172;5.378;2022-08-19T10:26:58;18.83;;;16.37;;
7957;SDS011;4024;52.172;5.378;2022-08-19T10:29:26;19.57;;;17.47;;
7957;SDS011;4024;52.172;5.378;2022-08-19T10:31:53;22.07;;;18.97;;
7957;SDS011;4024;52.172;5.378;2022-08-19T10:34:18;20.07;;;17.60;;
7957;SDS011;4024;52.172;5.378;2022-08-19T10:36:44;22.10;;;18.53;;
7957;SDS011;4024;52.172;5.378;2022-08-19T10:39:11;20.57;;;18.43;;
7957;SDS011;4024;52.172;5.378;2022-08-19T10:41:38;19.83;;;17.73;;
7957;SDS011;4024;52.172;5.378;2022-08-19T10:44:06;20.67;;;18.57;;
7957;SDS011;4024;52.172;5.378;2022-08-19T10:46:36;23.63;;;19.70;;
7957;SDS011;4024;52.172;5.378;2022-08-19T10:49:06;22.27;;;19.80;;
7957;SDS011;4024;52.172;5.378;2022-08-19T10:51:33;22.50;;;19.37;;
7957;SDS011;4024;52.172;5.378;2022-08-19T10:54:17;22.07;;;19.77;;
7957;SDS011;4024;52.172;5.378;2022-08-19T10:56:43;21.27;;;19.00;;
7957;SDS011;4024;52.172;5.378;2022-08-19T10:59:24;24.13;;;20.23;;
7957;SDS011;4024;52.172;5.378;2022-08-19T11:01:52;24.43;;;19.67;;
7957;SDS011;4024;52.172;5.378;2022-08-19T11:04:19;21.33;;;19.03;;
7957;SDS011;4024;52.172;5.378;2022-08-19T11:06:48;24.63;;;19.93;;
7957;SDS011;4024;52.172;5.378;2022-08-19T11:09:14;20.67;;;18.37;;
7957;SDS011;4024;52.172;5.378;2022-08-19T11:11:45;21.30;;;17.73;;
7957;SDS011;4024;52.172;5.378;2022-08-19T11:14:13;23.37;;;20.33;;
7957;SDS011;4024;52.172;5.378;2022-08-19T11:16:40;24.43;;;20.50;;
7957;SDS011;4024;52.172;5.378;2022-08-19T11:19:07;22.07;;;19.00;;
7957;SDS011;4024;52.172;5.378;2022-08-19T11:21:36;26.00;;;22.13;;
7957;SDS011;4024;52.172;5.378;2022-08-19T11:24:09;24.17;;;20.33;;
7957;SDS011;4024;52.172;5.378;2022-08-19T11:26:37;20.07;;;17.97;;
7957;SDS011;4024;52.172;5.378;2022-08-19T11:29:04;21.87;;;19.57;;
7957;SDS011;4024;52.172;5.378;2022-08-19T11:31:31;21.23;;;18.40;;
7957;SDS011;4024;52.172;5.378;2022-08-19T11:34:00;19.47;;;17.00;;
7957;SDS011;4024;52.172;5.378;2022-08-19T11:36:28;25.80;;;19.37;;
7957;SDS011;4024;52.172;5.378;2022-08-19T11:38:56;21.97;;;18.90;;
7957;SDS011;4024;52.172;5.378;2022-08-19T11:41:22;20.10;;;18.00;;
7957;SDS011;4024;52.172;5.378;2022-08-19T11:43:49;24.57;;;20.07;;
7957;SDS011;4024;52.172;5.378;2022-08-19T11:46:20;23.63;;;19.23;;
7957;SDS011;4024;52.172;5.378;2022-08-19T11:48:47;22.07;;;19.40;;
7957;SDS011;4024;52.172;5.378;2022-08-19T11:51:16;24.23;;;18.47;;
7957;SDS011;4024;52.172;5.378;2022-08-19T11:53:44;24.23;;;19.87;;
7957;SDS011;4024;52.172;5.378;2022-08-19T11:56:10;22.93;;;19.43;;
7957;SDS011;4024;52.172;5.378;2022-08-19T11:58:37;24.40;;;20.90;;
7957;SDS011;4024;52.172;5.378;2022-08-19T12:01:23;25.80;;;20.10;;
7957;SDS011;4024;52.172;5.378;2022-08-19T12:03:50;24.60;;;17.83;;
7957;SDS011;4024;52.172;5.378;2022-08-19T12:06:22;24.27;;;20.07;;
7957;SDS011;4024;52.172;5.378;2022-08-19T12:08:54;23.63;;;19.90;;
7957;SDS011;4024;52.172;5.378;2022-08-19T12:11:24;20.20;;;17.83;;
7957;SDS011;4024;52.172;5.378;2022-08-19T12:13:50;27.47;;;19.77;;
7957;SDS011;4024;52.172;5.378;2022-08-19T12:16:17;24.13;;;20.73;;
7957;SDS011;4024;52.172;5.378;2022-08-19T12:18:44;26.87;;;21.17;;
7957;SDS011;4024;52.172;5.378;2022-08-19T12:21:12;26.07;;;23.27;;
7957;SDS011;4024;52.172;5.378;2022-08-19T12:23:39;30.20;;;25.77;;
7957;SDS011;4024;52.172;5.378;2022-08-19T12:26:05;32.50;;;25.97;;
7957;SDS011;4024;52.172;5.378;2022-08-19T12:28:31;32.73;;;25.47;;
7957;SDS011;4024;52.172;5.378;2022-08-19T12:31:00;30.10;;;24.77;;
7957;SDS011;4024;52.172;5.378;2022-08-19T12:33:26;29.27;;;22.67;;
7957;SDS011;4024;52.172;5.378;2022-08-19T12:35:53;20.23;;;17.03;;
7957;SDS011;4024;52.172;5.378;2022-08-19T12:38:20;21.07;;;16.97;;
7957;SDS011;4024;52.172;5.378;2022-08-19T12:40:50;20.97;;;16.37;;
7957;SDS011;4024;52.172;5.378;2022-08-19T12:43:17;19.23;;;15.97;;
7957;SDS011;4024;52.172;5.378;2022-08-19T12:45:44;16.70;;;14.03;;
7957;SDS011;4024;52.172;5.378;2022-08-19T12:48:10;17.47;;;13.77;;
7957;SDS011;4024;52.172;5.378;2022-08-19T12:50:39;14.13;;;12.60;;
7957;SDS011;4024;52.172;5.378;2022-08-19T12:53:05;16.27;;;14.37;;
7957;SDS011;4024;52.172;5.378;2022-08-19T12:55:31;17.60;;;15.27;;
7957;SDS011;4024;52.172;5.378;2022-08-19T12:57:56;18.77;;;15.93;;
7957;SDS011;4024;52.172;5.378;2022-08-19T13:00:22;17.60;;;15.63;;
7957;SDS011;4024;52.172;5.378;2022-08-19T13:02:49;16.53;;;14.77;;
7957;SDS011;4024;52.172;5.378;2022-08-19T13:05:17;15.23;;;13.63;;
7957;SDS011;4024;52.172;5.378;2022-08-19T13:07:51;14.93;;;13.43;;
7957;SDS011;4024;52.172;5.378;2022-08-19T13:10:21;17.03;;;15.33;;
7957;SDS011;4024;52.172;5.378;2022-08-19T13:12:51;15.33;;;13.83;;
7957;SDS011;4024;52.172;5.378;2022-08-19T13:15:19;17.57;;;15.73;;
7957;SDS011;4024;52.172;5.378;2022-08-19T13:17:47;17.83;;;16.10;;
7957;SDS011;4024;52.172;5.378;2022-08-19T13:20:17;21.63;;;17.60;;
7957;SDS011;4024;52.172;5.378;2022-08-19T13:22:44;18.83;;;16.93;;
7957;SDS011;4024;52.172;5.378;2022-08-19T13:25:11;19.93;;;17.93;;
7957;SDS011;4024;52.172;5.378;2022-08-19T13:27:38;21.10;;;18.60;;
7957;SDS011;4024;52.172;5.378;2022-08-19T13:30:05;20.97;;;18.77;;
7957;SDS011;4024;52.172;5.378;2022-08-19T13:32:52;22.03;;;19.67;;
7957;SDS011;4024;52.172;5.378;2022-08-19T13:35:45;22.03;;;19.83;;
7957;SDS011;4024;52.172;5.378;2022-08-19T13:38:14;22.23;;;20.03;;
7957;SDS011;4024;52.172;5.378;2022-08-19T13:40:46;20.07;;;18.07;;
7957;SDS011;4024;52.172;5.378;2022-08-19T13:43:14;21.83;;;19.50;;
7957;SDS011;4024;52.172;5.378;2022-08-19T13:45:40;18.60;;;16.60;;
7957;SDS011;4024;52.172;5.378;2022-08-19T13:48:06;20.50;;;15.43;;
7957;SDS011;4024;52.172;5.378;2022-08-19T13:50:33;19.13;;;15.67;;
7957;SDS011;4024;52.172;5.378;2022-08-19T13:53:08;17.57;;;15.70;;
7957;SDS011;4024;52.172;5.378;2022-08-19T13:55:35;16.07;;;14.40;;
7957;SDS011;4024;52.172;5.378;2022-08-19T13:58:04;15.83;;;14.20;;
7957;SDS011;4024;52.172;5.378;2022-08-19T14:00:32;15.73;;;14.20;;
7957;SDS011;4024;52.172;5.378;2022-08-19T14:03:00;15.00;;;13.50;;
7957;SDS011;4024;52.172;5.378;2022-08-19T14:05:27;15.70;;;14.07;;
7957;SDS011;4024;52.172;5.378;2022-08-19T14:07:53;17.20;;;14.83;;
7957;SDS011;4024;52.172;5.378;2022-08-19T14:10:20;17.23;;;14.17;;
7957;SDS011;4024;52.172;5.378;2022-08-19T14:12:46;17.33;;;15.50;;
7957;SDS011;4024;52.172;5.378;2022-08-19T14:15:12;15.50;;;13.83;;
7957;SDS011;4024;52.172;5.378;2022-08-19T14:17:39;16.03;;;14.37;;
7957;SDS011;4024;52.172;5.378;2022-08-19T14:20:07;16.30;;;14.60;;
7957;SDS011;4024;52.172;5.378;2022-08-19T14:22:38;16.47;;;13.93;;
7957;SDS011;4024;52.172;5.378;2022-08-19T14:25:05;16.77;;;14.53;;
7957;SDS011;4024;52.172;5.378;2022-08-19T14:27:33;14.77;;;12.67;;
7957;SDS011;4024;52.172;5.378;2022-08-19T14:29:59;14.83;;;13.27;;
7957;SDS011;4024;52.172;5.378;2022-08-19T14:32:25;13.80;;;12.33;;
7957;SDS011;4024;52.172;5.378;2022-08-19T14:34:51;14.07;;;12.63;;
7957;SDS011;4024;52.172;5.378;2022-08-19T14:37:18;14.17;;;12.20;;
7957;SDS011;4024;52.172;5.378;2022-08-19T14:39:43;12.93;;;10.93;;
7957;SDS011;4024;52.172;5.378;2022-08-19T14:42:10;10.93;;;9.83;;
7957;SDS011;4024;52.172;5.378;2022-08-19T14:44:36;11.00;;;9.77;;
7957;SDS011;4024;52.172;5.378;2022-08-19T14:47:02;9.40;;;8.10;;
7957;SDS011;4024;52.172;5.378;2022-08-19T14:49:28;9.57;;;8.57;;
7957;SDS011;4024;52.172;5.378;2022-08-19T14:51:53;8.67;;;7.87;;
7957;SDS011;4024;52.172;5.378;2022-08-19T14:54:20;9.80;;;8.20;;
7957;SDS011;4024;52.172;5.378;2022-08-19T14:56:46;9.40;;;8.20;;
7957;SDS011;4024;52.172;5.378;2022-08-19T14:59:13;8.97;;;7.60;;
7957;SDS011;4024;52.172;5.378;2022-08-19T15:01:38;8.87;;;7.67;;
7957;SDS011;4024;52.172;5.378;2022-08-19T15:04:04;9.20;;;7.87;;
7957;SDS011;4024;52.172;5.378;2022-08-19T15:06:30;11.07;;;7.70;;
7957;SDS011;4024;52.172;5.378;2022-08-19T15:08:56;10.37;;;7.83;;
7957;SDS011;4024;52.172;5.378;2022-08-19T15:11:24;10.13;;;7.70;;
7957;SDS011;4024;52.172;5.378;2022-08-19T15:13:52;9.13;;;8.10;;
7957;SDS011;4024;52.172;5.378;2022-08-19T15:16:21;8.73;;;7.93;;
7957;SDS011;4024;52.172;5.378;2022-08-19T15:18:50;8.00;;;7.20;;